Time,TemperatureF,DewpointF,PressureIn,WindDirection,WindDirectionDegrees,WindSpeedMPH,WindSpeedGustMPH,Humidity,HourlyPrecipIn,Conditions,Clouds,dailyrainin,SolarRadiationWatts/m^2,SoftwareType,DateUTC
2014-12-26 00:01:00,35.0,32.4,29.80,East,98,0.0,0.0,90,0.00,,CLR,0.00,0.00,VWS V14.00,2014-12-26 06:01:00,
2014-12-26 00:06:00,35.5,32.6,29.80,East,98,0.0,0.0,89,0.00,,CLR,0.00,0.00,VWS V14.00,2014-12-26 06:06:00,
2014-12-26 00:11:00,35.8,32.6,29.80,East,98,0.0,0.0,88,0.00,,CLR,0.00,0.00,VWS V14.00,2014-12-26 06:11:00,
2014-12-26 00:16:00,36.0,32.8,29.80,East,97,0.0,0.0,88,0.00,,CLR,0.00,0.00,VWS V14.00,2014-12-26 06:16:00,
2014-12-26 00:21:00,36.2,32.7,29.80,East,98,0.0,0.0,87,0.00,,CLR,0.00,0.00,VWS V14.00,2014-12-26 06:21:00,
2014-12-26 00:26:00,36.3,32.8,29.80,East,97,0.0,0.0,87,0.00,,CLR,0.00,0.00,VWS V14.00,2014-12-26 06:26:00,
2014-12-26 00:31:00,36.3,32.8,29.80,East,97,0.0,0.0,87,0.00,,CLR,0.00,0.00,VWS V14.00,2014-12-26 06:31:00,
2014-12-26 00:36:00,36.5,32.7,29.80,East,98,0.0,0.0,86,0.00,,CLR,0.00,0.00,VWS V14.00,2014-12-26 06:36:00,
2014-12-26 00:41:00,36.6,32.8,29.80,East,98,0.0,0.0,86,0.00,,CLR,0.00,0.00,VWS V14.00,2014-12-26 06:41:00,
2014-12-26 00:46:00,36.8,33.0,29.80,SE,143,0.0,4.0,86,0.00,,CLR,0.00,0.00,VWS V14.00,2014-12-26 06:46:00,
2014-12-26 00:51:00,36.9,33.1,29.80,SE,143,0.0,0.0,86,0.00,,CLR,0.00,0.00,VWS V14.00,2014-12-26 06:51:00,
2014-12-26 00:56:00,36.9,32.8,29.80,SE,143,0.0,0.0,85,0.00,,CLR,0.00,0.00,VWS V14.00,2014-12-26 06:56:00,
2014-12-26 01:01:00,36.8,33.0,29.79,SE,143,0.0,0.0,86,0.00,,CLR,0.00,0.00,VWS V14.00,2014-12-26 07:01:00,
2014-12-26 01:06:00,36.8,32.7,29.80,SE,143,0.0,0.0,85,0.00,,CLR,0.00,0.00,VWS V14.00,2014-12-26 07:06:00,
2014-12-26 01:11:00,36.9,32.8,29.80,South,169,0.0,5.0,85,0.00,,CLR,0.00,0.00,VWS V14.00,2014-12-26 07:11:00,
2014-12-26 01:16:00,37.0,32.9,29.80,South,169,0.0,1.0,85,0.00,,CLR,0.00,0.00,VWS V14.00,2014-12-26 07:16:00,
2014-12-26 01:21:00,37.0,32.9,29.80,South,169,0.0,0.0,85,0.00,,CLR,0.00,0.00,VWS V14.00,2014-12-26 07:21:00,
2014-12-26 01:26:00,36.8,32.7,29.80,South,169,0.0,0.0,85,0.00,,CLR,0.00,0.00,VWS V14.00,2014-12-26 07:26:00,
2014-12-26 01:31:00,36.7,32.6,29.80,South,169,0.0,1.0,85,0.00,,CLR,0.00,0.00,VWS V14.00,2014-12-26 07:31:00,
2014-12-26 01:36:00,36.6,32.5,29.80,South,169,0.0,4.0,85,0.00,,CLR,0.00,0.00,VWS V14.00,2014-12-26 07:36:00,
2014-12-26 01:41:00,36.6,32.5,29.81,South,169,0.0,0.0,85,0.00,,CLR,0.00,0.00,VWS V14.00,2014-12-26 07:41:00,
2014-12-26 01:46:00,36.5,32.7,29.80,South,169,0.0,0.0,86,0.00,,CLR,0.00,0.00,VWS V14.00,2014-12-26 07:46:00,
2014-12-26 01:51:00,36.5,32.7,29.81,South,169,0.0,4.0,86,0.00,,CLR,0.00,0.00,VWS V14.00,2014-12-26 07:51:00,
2014-12-26 01:56:00,36.4,32.6,29.81,South,169,0.0,2.0,86,0.00,,CLR,0.00,0.00,VWS V14.00,2014-12-26 07:56:00,
2014-12-26 02:01:00,36.4,32.6,29.81,South,169,0.0,0.0,86,0.00,,CLR,0.00,0.00,VWS V14.00,2014-12-26 08:01:00,
2014-12-26 02:06:00,36.3,32.5,29.81,South,169,1.0,1.0,86,0.00,,CLR,0.00,0.00,VWS V14.00,2014-12-26 08:06:00,
2014-12-26 02:11:00,36.3,32.5,29.82,South,169,0.0,4.0,86,0.00,,CLR,0.00,0.00,VWS V14.00,2014-12-26 08:11:00,
2014-12-26 02:16:00,36.2,32.4,29.82,South,169,0.0,0.0,86,0.00,,CLR,0.00,0.00,VWS V14.00,2014-12-26 08:16:00,
2014-12-26 02:21:00,36.2,32.4,29.82,South,169,0.0,0.0,86,0.00,,CLR,0.00,0.00,VWS V14.00,2014-12-26 08:21:00,
2014-12-26 02:26:00,36.2,32.4,29.82,South,169,1.0,4.0,86,0.00,,CLR,0.00,0.00,VWS V14.00,2014-12-26 08:26:00,
2014-12-26 02:31:00,36.2,32.4,29.82,South,169,0.0,4.0,86,0.00,,CLR,0.00,0.00,VWS V14.00,2014-12-26 08:31:00,
2014-12-26 02:36:00,36.1,32.3,29.83,South,169,0.0,0.0,86,0.00,,CLR,0.00,0.00,VWS V14.00,2014-12-26 08:36:00,
2014-12-26 02:41:00,36.0,32.2,29.83,South,169,2.0,2.0,86,0.00,,CLR,0.00,0.00,VWS V14.00,2014-12-26 08:41:00,
2014-12-26 02:46:00,35.9,32.1,29.83,South,169,0.0,0.0,86,0.00,,CLR,0.00,0.00,VWS V14.00,2014-12-26 08:46:00,
2014-12-26 02:51:00,35.8,32.3,29.83,South,169,0.0,1.0,87,0.00,,CLR,0.00,0.00,VWS V14.00,2014-12-26 08:51:00,
2014-12-26 02:56:00,35.8,32.3,29.83,South,169,0.0,0.0,87,0.00,,CLR,0.00,0.00,VWS V14.00,2014-12-26 08:56:00,
2014-12-26 03:01:00,35.7,31.9,29.83,South,169,0.0,0.0,86,0.00,,CLR,0.00,0.00,VWS V14.00,2014-12-26 09:01:00,
2014-12-26 03:06:00,35.5,32.0,29.83,South,169,0.0,0.0,87,0.00,,CLR,0.00,0.00,VWS V14.00,2014-12-26 09:06:00,
2014-12-26 03:11:00,35.4,31.9,29.83,South,169,0.0,0.0,87,0.00,,CLR,0.00,0.00,VWS V14.00,2014-12-26 09:11:00,
2014-12-26 03:16:00,35.3,31.8,29.83,South,169,0.0,0.0,87,0.00,,CLR,0.00,0.00,VWS V14.00,2014-12-26 09:16:00,
2014-12-26 03:21:00,35.2,31.7,29.84,South,169,0.0,0.0,87,0.00,,CLR,0.00,0.00,VWS V14.00,2014-12-26 09:21:00,
2014-12-26 03:26:00,35.1,31.6,29.84,South,169,0.0,0.0,87,0.00,,CLR,0.00,0.00,VWS V14.00,2014-12-26 09:26:00,
2014-12-26 03:31:00,35.0,31.8,29.84,South,169,0.0,0.0,88,0.00,,CLR,0.00,0.00,VWS V14.00,2014-12-26 09:31:00,
2014-12-26 03:36:00,35.2,32.0,29.84,South,170,0.0,0.0,88,0.00,,CLR,0.00,0.00,VWS V14.00,2014-12-26 09:36:00,
2014-12-26 03:41:00,35.2,32.0,29.84,South,169,0.0,0.0,88,0.00,,CLR,0.00,0.00,VWS V14.00,2014-12-26 09:41:00,
2014-12-26 03:46:00,35.1,31.9,29.84,South,169,0.0,0.0,88,0.00,,CLR,0.00,0.00,VWS V14.00,2014-12-26 09:46:00,
2014-12-26 03:51:00,35.1,31.6,29.84,South,169,0.0,0.0,87,0.00,,CLR,0.00,0.00,VWS V14.00,2014-12-26 09:51:00,
2014-12-26 03:56:00,34.8,31.3,29.84,South,169,0.0,0.0,87,0.00,,CLR,0.00,0.00,VWS V14.00,2014-12-26 09:56:00,
2014-12-26 04:01:00,34.7,31.5,29.84,South,169,0.0,0.0,88,0.00,,CLR,0.00,0.00,VWS V14.00,2014-12-26 10:01:00,
2014-12-26 04:06:00,34.5,31.3,29.84,South,169,0.0,0.0,88,0.00,,CLR,0.00,0.00,VWS V14.00,2014-12-26 10:06:00,
2014-12-26 04:11:00,34.4,31.2,29.84,South,169,0.0,0.0,88,0.00,,CLR,0.00,0.00,VWS V14.00,2014-12-26 10:11:00,
2014-12-26 04:16:00,34.1,30.9,29.85,South,169,0.0,0.0,88,0.00,,CLR,0.00,0.00,VWS V14.00,2014-12-26 10:16:00,
2014-12-26 04:21:00,33.7,30.5,29.85,South,169,0.0,0.0,88,0.00,,CLR,0.00,0.00,VWS V14.00,2014-12-26 10:21:00,
2014-12-26 04:26:00,33.3,30.4,29.85,SSW,205,0.0,3.0,89,0.00,,CLR,0.00,0.00,VWS V14.00,2014-12-26 10:26:00,
2014-12-26 04:31:00,33.0,30.1,29.85,SSW,204,0.0,0.0,89,0.00,,CLR,0.00,0.00,VWS V14.00,2014-12-26 10:31:00,
2014-12-26 04:36:00,32.8,30.2,29.86,SSW,204,0.0,0.0,90,0.00,,CLR,0.00,0.00,VWS V14.00,2014-12-26 10:36:00,
2014-12-26 04:41:00,32.6,30.0,29.86,SSW,204,0.0,0.0,90,0.00,,CLR,0.00,0.00,VWS V14.00,2014-12-26 10:41:00,
2014-12-26 04:46:00,32.3,29.7,29.86,SSW,204,0.0,0.0,90,0.00,,CLR,0.00,0.00,VWS V14.00,2014-12-26 10:46:00,
2014-12-26 04:51:00,32.1,29.8,29.86,SSW,204,0.0,0.0,91,0.00,,CLR,0.00,0.00,VWS V14.00,2014-12-26 10:51:00,
2014-12-26 04:56:00,31.8,29.2,29.86,SSW,204,0.0,0.0,90,0.00,,CLR,0.00,0.00,VWS V14.00,2014-12-26 10:56:00,
2014-12-26 05:01:00,31.4,29.1,29.86,SSW,204,0.0,0.0,91,0.00,,CLR,0.00,0.00,VWS V14.00,2014-12-26 11:01:00,
2014-12-26 05:06:00,31.1,28.8,29.86,SSW,204,0.0,0.0,91,0.00,,CLR,0.00,0.00,VWS V14.00,2014-12-26 11:06:00,
2014-12-26 05:11:00,30.8,28.5,29.86,SSW,204,0.0,0.0,91,0.00,,CLR,0.00,0.00,VWS V14.00,2014-12-26 11:11:00,